createdAt,value
2022-08-10T00:00:00.146Z,2.00
2022-08-10T00:02:45.738Z,1.70
2022-08-10T00:05:43.159Z,2.22
2022-08-10T00:08:36.917Z,1.77
2022-08-10T00:11:22.552Z,1.60
2022-08-10T00:14:07.978Z,1.90
2022-08-10T00:16:53.168Z,1.80
2022-08-10T00:20:03.017Z,1.63
2022-08-10T00:22:53.017Z,2.38
2022-08-10T00:25:44.926Z,2.55
2022-08-10T00:28:31.430Z,2.80
2022-08-10T00:31:16.847Z,1.75
2022-08-10T00:34:02.963Z,2.10
2022-08-10T00:36:48.442Z,2.30
2022-08-10T00:39:36.320Z,2.03
2022-08-10T00:42:24.859Z,2.25
2022-08-10T00:45:10.696Z,2.35
2022-08-10T00:47:56.332Z,2.30
2022-08-10T00:50:42.004Z,2.55
2022-08-10T00:53:28.624Z,2.47
2022-08-10T00:57:15.648Z,2.50
2022-08-10T00:59:19.927Z,2.47
2022-08-10T01:02:11.098Z,2.90
2022-08-10T01:05:20.701Z,2.60
2022-08-10T01:08:31.686Z,2.55
2022-08-10T01:12:40.049Z,3.22
2022-08-10T01:14:45.523Z,2.72
2022-08-10T01:17:52.512Z,2.55
2022-08-10T01:20:48.094Z,3.00
2022-08-10T01:24:01.485Z,3.17
2022-08-10T01:27:00.134Z,3.50
2022-08-10T01:29:56.709Z,3.90
2022-08-10T01:33:31.679Z,4.97
2022-08-10T01:36:32.223Z,5.43
2022-08-10T01:39:28.109Z,5.10
2022-08-10T01:42:16.970Z,3.45
2022-08-10T01:45:05.271Z,3.83
2022-08-10T01:48:16.546Z,3.13
2022-08-10T01:51:17.717Z,3.53
2022-08-10T01:54:12.179Z,3.03
2022-08-10T01:57:02.116Z,3.25
2022-08-10T01:59:54.766Z,3.53
2022-08-10T02:02:52.869Z,3.00
2022-08-10T02:05:43.782Z,3.35
2022-08-10T02:08:32.718Z,3.08
2022-08-10T02:11:20.223Z,3.30
2022-08-10T02:14:07.359Z,3.03
2022-08-10T02:16:53.851Z,3.00
2022-08-10T02:19:41.838Z,2.75
2022-08-10T02:22:36.276Z,2.80
2022-08-10T02:25:41.034Z,3.05
2022-08-10T02:28:34.727Z,2.63
2022-08-10T02:31:24.683Z,3.00
2022-08-10T02:34:14.424Z,2.65
2022-08-10T02:37:04.015Z,2.67
2022-08-10T02:39:57.198Z,2.70
2022-08-10T02:45:23.960Z,2.65
2022-08-10T02:46:34.482Z,2.25
2022-08-10T02:49:29.370Z,2.42
2022-08-10T02:52:21.032Z,2.88
2022-08-10T02:55:17.323Z,2.25
2022-08-10T02:58:13.861Z,2.42
2022-08-10T03:01:06.841Z,2.40
2022-08-10T03:03:59.236Z,2.13
2022-08-10T03:06:54.638Z,2.15
2022-08-10T03:09:42.156Z,3.25
2022-08-10T03:12:38.431Z,2.63
2022-08-10T03:15:27.416Z,2.10
2022-08-10T03:18:14.158Z,2.20
2022-08-10T03:21:00.650Z,2.05
2022-08-10T03:23:47.535Z,2.80
2022-08-10T03:26:34.412Z,1.90
2022-08-10T03:29:22.116Z,2.17
2022-08-10T03:32:09.625Z,2.65
2022-08-10T03:34:55.608Z,2.25
2022-08-10T03:37:41.221Z,2.28
2022-08-10T03:40:45.350Z,2.33
2022-08-10T03:43:34.190Z,1.85
2022-08-10T03:46:23.858Z,2.22
2022-08-10T03:49:10.780Z,2.03
2022-08-10T03:51:58.460Z,2.40
2022-08-10T03:54:45.487Z,2.47
2022-08-10T03:57:31.208Z,2.30
2022-08-10T04:00:18.822Z,1.90
2022-08-10T04:03:06.032Z,2.20
2022-08-10T04:05:51.605Z,2.05
2022-08-10T04:08:41.178Z,1.98
2022-08-10T04:11:26.705Z,2.05
2022-08-10T04:14:38.521Z,2.00
2022-08-10T04:17:17.554Z,1.90
2022-08-10T04:20:34.610Z,2.17
2022-08-10T04:23:24.152Z,1.90
2022-08-10T04:26:10.805Z,2.22
2022-08-10T04:28:56.340Z,2.20
2022-08-10T04:31:45.149Z,2.00
2022-08-10T04:34:32.581Z,2.20
2022-08-10T04:37:20.970Z,1.98
2022-08-10T04:40:25.364Z,2.20
2022-08-10T04:43:13.774Z,2.38
2022-08-10T04:46:00.450Z,2.30
2022-08-10T04:49:01.595Z,1.95
2022-08-10T04:51:47.903Z,1.77
2022-08-10T04:54:33.525Z,2.20
2022-08-10T04:57:18.768Z,1.90
2022-08-10T05:00:07.471Z,1.83
2022-08-10T05:03:02.565Z,2.13
2022-08-10T05:05:48.611Z,1.63
2022-08-10T05:08:38.415Z,2.20
2022-08-10T05:11:23.810Z,1.70
2022-08-10T05:14:09.749Z,2.30
2022-08-10T05:16:55.180Z,2.53
2022-08-10T05:20:02.950Z,2.33
2022-08-10T05:22:46.399Z,2.08
2022-08-10T05:25:32.994Z,2.42
2022-08-10T05:28:23.853Z,2.47
2022-08-10T05:31:22.484Z,2.35
2022-08-10T05:34:20.507Z,2.72
2022-08-10T05:37:07.138Z,2.60
2022-08-10T05:40:13.130Z,2.65
2022-08-10T05:42:58.654Z,2.88
2022-08-10T05:46:19.075Z,2.30
2022-08-10T05:48:59.748Z,2.67
2022-08-10T05:51:46.528Z,2.88
2022-08-10T05:54:31.859Z,2.90
2022-08-10T05:57:19.813Z,2.22
2022-08-10T06:00:36.844Z,2.42
2022-08-10T06:03:23.882Z,2.40
2022-08-10T06:06:10.479Z,2.58
2022-08-10T06:08:59.220Z,2.97
2022-08-10T06:12:27.267Z,2.55
2022-08-10T06:15:05.755Z,2.50
2022-08-10T06:18:02.084Z,2.28
2022-08-10T06:20:48.163Z,2.40
2022-08-10T06:23:34.995Z,2.28
2022-08-10T06:26:21.771Z,2.30
2022-08-10T06:29:13.952Z,2.72
2022-08-10T06:32:01.469Z,2.00
2022-08-10T06:34:49.750Z,2.25
2022-08-10T06:37:37.520Z,2.38
2022-08-10T06:40:27.959Z,2.25
2022-08-10T06:43:17.272Z,2.15
2022-08-10T06:46:08.947Z,2.00
2022-08-10T06:48:59.329Z,2.20
2022-08-10T06:51:47.506Z,2.17
2022-08-10T06:54:45.061Z,2.67
2022-08-10T06:57:33.363Z,2.83
2022-08-10T07:00:20.192Z,2.45
2022-08-10T07:03:10.061Z,2.15
2022-08-10T07:05:56.813Z,2.20
2022-08-10T07:08:44.041Z,1.98
2022-08-10T07:11:31.391Z,2.10
2022-08-10T07:14:18.871Z,2.83
2022-08-10T07:17:06.072Z,2.33
2022-08-10T07:19:59.843Z,1.83
2022-08-10T07:23:01.503Z,2.25
2022-08-10T07:25:59.312Z,1.63
2022-08-10T07:28:48.298Z,2.20
2022-08-10T07:31:57.248Z,2.22
2022-08-10T07:34:44.603Z,2.00
2022-08-10T07:37:34.398Z,2.15
2022-08-10T07:40:22.498Z,1.83
2022-08-10T07:43:09.945Z,2.75
2022-08-10T07:45:57.317Z,1.83
2022-08-10T07:48:47.734Z,1.73
2022-08-10T07:51:33.602Z,2.22
2022-08-10T07:54:21.374Z,1.60
2022-08-10T07:57:12.925Z,1.90
2022-08-10T08:00:18.098Z,1.50
2022-08-10T08:03:07.343Z,1.60
2022-08-10T08:05:57.698Z,1.27
2022-08-10T08:08:47.942Z,1.45
2022-08-10T08:11:35.206Z,1.20
2022-08-10T08:14:22.387Z,1.38
2022-08-10T08:17:09.292Z,1.20
2022-08-10T08:19:58.458Z,1.25
2022-08-10T08:24:10.784Z,1.20
2022-08-10T08:25:53.583Z,1.23
2022-08-10T08:28:42.119Z,1.45
2022-08-10T08:31:28.607Z,1.35
2022-08-10T08:34:16.260Z,1.27
2022-08-10T08:37:04.190Z,1.65
2022-08-10T08:39:50.100Z,1.20
2022-08-10T08:42:53.504Z,1.35
2022-08-10T08:46:02.913Z,1.20
2022-08-10T08:49:06.831Z,1.05
2022-08-10T08:52:18.124Z,0.93
2022-08-10T08:56:02.821Z,0.80
2022-08-10T08:58:58.723Z,1.10
2022-08-10T09:02:07.684Z,0.80
2022-08-10T09:05:01.343Z,0.60
2022-08-10T09:08:25.083Z,0.90
2022-08-10T09:11:28.658Z,1.10
2022-08-10T09:14:29.782Z,1.25
2022-08-10T09:17:32.122Z,0.98
2022-08-10T09:20:27.007Z,0.85
2022-08-10T09:24:04.746Z,0.90
2022-08-10T09:26:49.827Z,0.95
2022-08-10T09:29:47.151Z,0.80
2022-08-10T09:36:13.944Z,0.80
2022-08-10T09:36:34.065Z,4.95
2022-08-10T09:40:56.954Z,5.82
2022-08-10T09:43:25.793Z,13.30
2022-08-10T09:46:33.487Z,12.20
2022-08-10T09:49:53.886Z,9.25
2022-08-10T09:52:59.037Z,9.70
2022-08-10T09:56:18.281Z,10.23
2022-08-10T09:59:56.722Z,6.93
2022-08-10T10:02:58.144Z,5.88
2022-08-10T10:05:53.097Z,2.70
2022-08-10T10:08:46.432Z,1.10
2022-08-10T10:12:09.860Z,1.38
2022-08-10T10:15:25.226Z,1.38
2022-08-10T10:18:35.389Z,1.60
2022-08-10T10:21:56.293Z,0.88
2022-08-10T10:24:48.113Z,1.30
2022-08-10T10:27:33.344Z,1.10
2022-08-10T10:30:20.527Z,0.90
2022-08-10T10:33:27.648Z,1.55
2022-08-10T10:36:16.649Z,0.90
2022-08-10T10:39:02.909Z,0.98
2022-08-10T10:42:04.667Z,0.93
2022-08-10T10:45:15.888Z,1.02
2022-08-10T10:48:24.214Z,1.35
2022-08-10T10:51:21.183Z,0.80
2022-08-10T10:54:12.545Z,0.80
2022-08-10T10:57:12.120Z,0.93
2022-08-10T11:00:11.310Z,0.85
2022-08-10T11:03:23.756Z,1.52
2022-08-10T11:06:39.795Z,1.63
2022-08-10T11:10:05.465Z,1.33
2022-08-10T11:14:23.598Z,1.75
2022-08-10T11:16:50.824Z,1.60
2022-08-10T11:20:01.626Z,1.02
2022-08-10T11:23:34.729Z,1.73
2022-08-10T11:26:28.770Z,1.45
2022-08-10T11:29:37.227Z,1.42
2022-08-10T11:33:05.212Z,1.20
2022-08-10T11:35:56.543Z,1.70
2022-08-10T11:39:13.850Z,1.65
2022-08-10T11:42:18.536Z,1.25
2022-08-10T11:45:35.401Z,1.10
2022-08-10T11:48:54.021Z,0.90
2022-08-10T11:52:03.783Z,1.70
2022-08-10T11:54:54.930Z,1.33
2022-08-10T11:57:54.482Z,1.20
2022-08-10T12:00:41.788Z,1.20
2022-08-10T12:03:34.592Z,1.00
2022-08-10T12:06:53.623Z,1.08
2022-08-10T12:10:08.525Z,1.15
2022-08-10T12:12:46.034Z,0.80
2022-08-10T12:15:48.524Z,0.80
2022-08-10T12:18:46.337Z,1.02
2022-08-10T12:21:45.750Z,0.73
2022-08-10T12:24:48.797Z,0.63
2022-08-10T12:27:48.826Z,0.57
2022-08-10T12:30:38.570Z,0.60
2022-08-10T12:33:29.541Z,0.70
2022-08-10T12:36:28.410Z,0.90
2022-08-10T12:39:14.210Z,0.50
2022-08-10T12:42:38.683Z,0.73
2022-08-10T12:45:40.452Z,0.40
2022-08-10T12:48:54.473Z,0.77
2022-08-10T12:51:49.449Z,0.60
2022-08-10T12:54:36.988Z,0.85
2022-08-10T12:57:25.159Z,0.43
2022-08-10T13:00:17.658Z,0.47
2022-08-10T13:03:06.613Z,0.50
2022-08-10T13:06:00.222Z,0.55
2022-08-10T13:09:07.166Z,0.70
2022-08-10T13:12:44.565Z,0.60
2022-08-10T13:15:44.546Z,0.40
2022-08-10T13:18:33.747Z,1.00
2022-08-10T13:21:21.258Z,0.50
2022-08-10T13:24:16.405Z,0.65
2022-08-10T13:27:26.786Z,1.08
2022-08-10T13:30:12.556Z,0.63
2022-08-10T13:32:59.292Z,1.02
2022-08-10T13:35:47.302Z,0.95
2022-08-10T13:38:35.013Z,1.42
2022-08-10T13:41:21.160Z,1.00
2022-08-10T13:44:09.860Z,1.00
2022-08-10T13:46:56.876Z,0.70
2022-08-10T13:49:47.397Z,0.50
2022-08-10T13:52:34.890Z,0.75
2022-08-10T13:55:25.154Z,0.57
2022-08-10T13:58:11.899Z,0.60
2022-08-10T14:01:09.471Z,1.88
2022-08-10T14:03:56.125Z,0.63
2022-08-10T14:06:48.793Z,1.17
2022-08-10T14:09:34.820Z,0.90
2022-08-10T14:12:31.872Z,0.70
2022-08-10T14:15:26.491Z,0.98
2022-08-10T14:18:14.046Z,0.68
2022-08-10T14:21:00.248Z,0.90
2022-08-10T14:23:52.707Z,0.60
2022-08-10T14:26:40.764Z,0.77
2022-08-10T14:29:28.648Z,0.60
2022-08-10T14:32:16.587Z,0.70
2022-08-10T14:36:19.160Z,0.70
2022-08-10T14:38:18.425Z,0.60
2022-08-10T14:41:13.694Z,0.98
2022-08-10T14:44:20.678Z,0.57
2022-08-10T14:47:54.097Z,0.70
2022-08-10T14:50:32.364Z,0.75
2022-08-10T14:53:27.025Z,0.80
2022-08-10T14:56:15.782Z,0.90
2022-08-10T14:59:07.694Z,0.70
2022-08-10T15:02:38.236Z,0.50
2022-08-10T15:07:58.732Z,0.70
2022-08-10T15:10:51.027Z,0.75
2022-08-10T15:13:37.006Z,0.98
2022-08-10T15:16:23.870Z,0.90
2022-08-10T15:20:01.281Z,0.85
2022-08-10T15:22:36.609Z,0.65
2022-08-10T15:25:25.965Z,0.93
2022-08-10T15:28:16.778Z,0.98
2022-08-10T15:31:04.284Z,0.75
2022-08-10T15:34:10.780Z,0.88
2022-08-10T15:37:36.347Z,1.00
2022-08-10T15:40:24.544Z,0.65
2022-08-10T15:43:20.214Z,1.13
2022-08-10T15:46:29.732Z,1.00
2022-08-10T15:49:49.901Z,0.68
2022-08-10T15:53:01.670Z,0.90
2022-08-10T15:55:58.844Z,0.68
2022-08-10T15:58:49.421Z,0.85
2022-08-10T16:02:15.118Z,0.88
2022-08-10T16:05:17.221Z,1.00
2022-08-10T16:08:10.173Z,1.02
2022-08-10T16:11:03.732Z,1.05
2022-08-10T16:13:51.037Z,1.35
2022-08-10T16:16:54.282Z,1.20
2022-08-10T16:19:52.309Z,0.98
2022-08-10T16:22:38.847Z,0.73
2022-08-10T16:25:51.363Z,0.90
2022-08-10T16:28:35.600Z,0.90
2022-08-10T16:31:26.623Z,1.67
2022-08-10T16:37:08.798Z,1.10
2022-08-10T16:40:01.132Z,1.00
2022-08-10T16:42:49.444Z,0.93
2022-08-10T16:45:39.350Z,1.20
2022-08-10T16:48:49.607Z,0.93
2022-08-10T16:51:38.305Z,0.80
2022-08-10T16:54:27.920Z,0.95
2022-08-10T16:57:16.092Z,0.75
2022-08-10T17:00:02.453Z,0.80
2022-08-10T17:02:51.402Z,0.82
2022-08-10T17:06:10.034Z,0.60
2022-08-10T17:08:48.197Z,1.00
2022-08-10T17:11:37.730Z,0.75
2022-08-10T17:14:28.877Z,0.55
2022-08-10T17:17:39.085Z,0.82
2022-08-10T17:20:32.846Z,1.02
2022-08-10T17:23:20.021Z,1.05
2022-08-10T17:26:11.060Z,0.90
2022-08-10T17:29:06.487Z,1.02
2022-08-10T17:31:57.572Z,0.90
2022-08-10T17:34:52.829Z,1.17
2022-08-10T17:37:46.563Z,0.93
2022-08-10T17:40:34.153Z,0.88
2022-08-10T17:43:46.510Z,0.82
2022-08-10T17:46:40.598Z,0.77
2022-08-10T17:49:27.142Z,0.90
2022-08-10T17:52:20.691Z,0.90
2022-08-10T17:55:07.991Z,0.70
2022-08-10T17:58:01.593Z,0.70
2022-08-10T18:00:54.917Z,1.30
2022-08-10T18:03:43.346Z,0.75
2022-08-10T18:06:29.859Z,0.88
2022-08-10T18:09:30.984Z,0.70
2022-08-10T18:12:30.879Z,1.00
2022-08-10T18:15:24.751Z,0.80
2022-08-10T18:18:16.772Z,0.70
2022-08-10T18:21:12.514Z,1.08
2022-08-10T18:24:15.652Z,0.75
2022-08-10T18:27:05.127Z,0.75
2022-08-10T18:29:53.669Z,0.98
2022-08-10T18:32:45.846Z,0.90
2022-08-10T18:35:34.944Z,0.75
2022-08-10T18:38:22.168Z,0.88
2022-08-10T18:41:22.074Z,0.80
2022-08-10T18:44:16.672Z,0.80
2022-08-10T18:47:09.363Z,0.95
2022-08-10T18:50:00.256Z,0.80
2022-08-10T18:52:48.952Z,0.88
2022-08-10T18:55:46.238Z,0.80
2022-08-10T18:59:03.249Z,0.80
2022-08-10T19:01:55.008Z,1.00
2022-08-10T19:05:30.587Z,1.20
2022-08-10T19:08:49.599Z,0.80
2022-08-10T19:11:54.812Z,1.00
2022-08-10T19:14:52.445Z,1.02
2022-08-10T19:18:03.319Z,1.25
2022-08-10T19:21:25.648Z,1.05
2022-08-10T19:24:26.997Z,1.00
2022-08-10T19:27:52.912Z,1.00
2022-08-10T19:31:08.659Z,1.10
2022-08-10T19:34:11.494Z,1.00
2022-08-10T19:37:32.184Z,1.33
2022-08-10T19:40:46.554Z,1.23
2022-08-10T19:44:00.423Z,1.02
2022-08-10T19:47:07.239Z,0.75
2022-08-10T19:50:05.453Z,1.30
2022-08-10T19:53:25.232Z,1.10
2022-08-10T19:56:34.563Z,1.08
2022-08-10T20:00:15.247Z,1.10
2022-08-10T20:03:11.838Z,1.08
2022-08-10T20:06:20.704Z,1.30
2022-08-10T20:09:20.328Z,1.15
2022-08-10T20:12:10.463Z,1.17
2022-08-10T20:15:10.425Z,1.63
2022-08-10T20:18:04.359Z,1.30
2022-08-10T20:21:28.987Z,1.48
2022-08-10T20:24:28.649Z,1.48
2022-08-10T20:27:59.857Z,1.35
2022-08-10T20:30:35.927Z,1.23
2022-08-10T20:33:33.373Z,1.58
2022-08-10T20:36:32.748Z,1.65
2022-08-10T20:39:27.055Z,1.42
2022-08-10T20:42:22.162Z,1.20
2022-08-10T20:45:27.241Z,1.40
2022-08-10T20:48:24.114Z,1.80
2022-08-10T20:51:19.407Z,1.58
2022-08-10T20:54:08.941Z,2.03
2022-08-10T20:57:53.419Z,1.55
2022-08-10T21:00:42.742Z,1.98
2022-08-10T21:03:49.418Z,2.00
2022-08-10T21:07:28.326Z,1.48
2022-08-10T21:10:42.964Z,2.03
2022-08-10T21:13:53.221Z,1.63
2022-08-10T21:16:58.735Z,2.50
2022-08-10T21:20:08.267Z,1.45
2022-08-10T21:25:41.673Z,1.50
2022-08-10T21:26:18.096Z,1.75
2022-08-10T21:29:21.345Z,2.13
2022-08-10T21:32:22.467Z,1.75
2022-08-10T21:35:36.971Z,1.40
2022-08-10T21:38:36.610Z,1.42
2022-08-10T21:41:58.842Z,1.65
2022-08-10T21:45:12.414Z,1.38
2022-08-10T21:48:33.665Z,1.67
2022-08-10T21:52:03.892Z,1.70
2022-08-10T21:55:08.808Z,1.55
2022-08-10T21:58:27.585Z,1.67
2022-08-10T22:01:40.352Z,1.65
2022-08-10T22:04:45.813Z,1.50
2022-08-10T22:07:51.612Z,1.73
2022-08-10T22:11:01.650Z,2.10
2022-08-10T22:14:06.713Z,1.98
2022-08-10T22:18:03.490Z,1.55
2022-08-10T22:20:46.542Z,2.10
2022-08-10T22:24:33.314Z,1.50
2022-08-10T22:27:48.055Z,1.70
2022-08-10T22:31:28.723Z,2.08
2022-08-10T22:34:52.298Z,1.80
2022-08-10T22:38:07.929Z,2.25
2022-08-10T22:41:21.206Z,2.13
2022-08-10T22:44:29.642Z,2.35
2022-08-10T22:47:39.036Z,2.00
2022-08-10T22:50:28.309Z,1.90
2022-08-10T22:53:26.549Z,2.30
2022-08-10T22:56:39.962Z,2.08
2022-08-10T22:59:28.302Z,1.85
2022-08-10T23:02:30.990Z,2.03
2022-08-10T23:05:24.690Z,1.70
2022-08-10T23:08:30.648Z,1.92
2022-08-10T23:11:27.726Z,1.52
2022-08-10T23:14:19.545Z,2.20
2022-08-10T23:18:01.090Z,1.92
2022-08-10T23:20:41.505Z,1.80
2022-08-10T23:23:30.041Z,2.30
2022-08-10T23:26:24.344Z,1.80
2022-08-10T23:29:14.750Z,2.33
2022-08-10T23:32:07.224Z,1.80
2022-08-10T23:36:30.365Z,1.90
2022-08-10T23:38:01.931Z,1.98
2022-08-10T23:40:51.389Z,2.55
2022-08-10T23:44:02.935Z,2.58
2022-08-10T23:46:47.514Z,2.13
2022-08-10T23:49:35.760Z,1.90
2022-08-10T23:52:25.243Z,2.45
2022-08-10T23:55:19.582Z,2.47
2022-08-10T23:58:09.793Z,2.40
